Time;durP1;ratioP1;P1;durP2;ratioP2;P2;SDS_P1;SDS_P2;PMS_P1;PMS_P2;Temp;Humidity;BMP_temperature;BMP_pressure;BME280_temperature;BME280_humidity;BME280_pressure;Samples;Min_cycle;Max_cycle;Signal;HPM_P1;HPM_P2
2023/09/03 00:01:06;;;;;;;1.88;1.02;;;21.50;63.90;;;;;;6197919;28;20390;-68
2023/09/03 00:04:06;;;;;;;2.75;1.40;;;21.50;63.90;;;;;;6198298;28;20019;-68
2023/09/03 00:07:07;;;;;;;1.83;1.42;;;21.50;63.90;;;;;;6198407;28;20027;-68
2023/09/03 00:10:08;;;;;;;1.42;1.00;;;21.50;63.90;;;;;;6198021;28;20519;-68
2023/09/03 00:13:08;;;;;;;2.28;1.42;;;21.50;63.90;;;;;;6197522;28;20093;-68
2023/09/03 00:16:10;;;;;;;1.60;1.10;;;21.50;63.90;;;;;;6197718;28;20070;-67
2023/09/03 00:19:10;;;;;;;1.38;1.20;;;21.50;63.90;;;;;;6198509;28;20057;-68
2023/09/03 00:22:11;;;;;;;2.38;1.25;;;21.50;63.90;;;;;;6197703;28;20721;-68
2023/09/03 00:25:11;;;;;;;2.38;1.42;;;21.50;63.90;;;;;;6197835;28;20057;-68
2023/09/03 00:28:12;;;;;;;1.38;1.13;;;21.50;63.90;;;;;;6197780;28;20030;-68
2023/09/03 00:31:13;;;;;;;1.75;1.10;;;21.50;63.90;;;;;;6197509;28;20525;-68
2023/09/03 00:34:13;;;;;;;1.40;1.25;;;21.50;64.00;;;;;;6197865;28;20390;-69
2023/09/03 00:37:14;;;;;;;1.20;1.10;;;21.50;64.00;;;;;;6197003;28;20046;-68
2023/09/03 00:40:15;;;;;;;1.40;0.80;;;21.50;63.90;;;;;;6197930;28;20024;-68
2023/09/03 00:43:16;;;;;;;1.73;1.13;;;21.50;63.90;;;;;;6197020;28;20546;-68
2023/09/03 00:46:17;;;;;;;2.38;1.48;;;21.50;63.90;;;;;;6196964;28;20517;-67
2023/09/03 00:49:22;;;;;;;1.50;1.30;;;21.50;63.90;;;;;;6196265;28;20027;-67
2023/09/03 00:52:24;;;;;;;1.50;1.13;;;21.50;64.00;;;;;;6196924;28;20042;-67
2023/09/03 00:55:25;;;;;;;1.38;1.00;;;21.50;63.90;;;;;;6197076;28;20065;-67
2023/09/03 00:58:26;;;;;;;1.90;1.25;;;21.50;64.10;;;;;;6197135;28;20022;-68
2023/09/03 01:01:29;;;;;;;2.05;1.40;;;21.60;64.10;;;;;;6196784;28;20084;-68
2023/09/03 01:04:29;;;;;;;1.30;1.20;;;21.50;63.90;;;;;;6197196;28;20093;-68
2023/09/03 01:07:30;;;;;;;1.30;1.10;;;21.50;64.00;;;;;;6196745;28;20026;-68
2023/09/03 01:10:45;;;;;;;1.95;1.10;;;21.50;64.00;;;;;;6196922;28;20033;-68
2023/09/03 01:14:13;;;;;;;2.28;1.30;;;21.50;64.00;;;;;;6196226;28;20058;-68
2023/09/03 01:17:46;;;;;;;1.25;1.10;;;21.50;64.00;;;;;;6196380;28;20105;-68
2023/09/03 01:21:17;;;;;;;1.45;1.23;;;21.50;64.00;;;;;;6196337;28;20053;-68
2023/09/03 01:24:47;;;;;;;1.90;1.30;;;21.50;64.00;;;;;;6196345;28;20669;-68
2023/09/03 01:28:04;;;;;;;2.30;1.27;;;21.50;64.00;;;;;;6194819;28;20052;-68
2023/09/03 01:31:11;;;;;;;1.30;1.08;;;21.50;64.10;;;;;;6211840;28;20481;-68
2023/09/03 01:34:12;;;;;;;1.80;1.30;;;21.50;64.00;;;;;;6196036;28;20374;-68
2023/09/03 01:37:13;;;;;;;2.15;1.40;;;21.50;64.00;;;;;;6195803;28;20045;-68
2023/09/03 01:40:14;;;;;;;1.52;1.20;;;21.50;64.10;;;;;;6196127;28;20022;-67
2023/09/03 01:43:14;;;;;;;1.40;1.13;;;21.50;64.10;;;;;;6195682;28;20057;-68
2023/09/03 01:46:45;;;;;;;1.90;1.25;;;21.50;64.10;;;;;;6196231;28;20053;-69
2023/09/03 01:50:09;;;;;;;1.38;1.15;;;21.50;64.10;;;;;;6195901;28;20026;-68
2023/09/03 01:53:27;;;;;;;1.08;0.98;;;21.50;64.10;;;;;;6181789;28;20034;-68
2023/09/03 01:56:34;;;;;;;1.63;1.08;;;21.50;64.10;;;;;;6195124;28;20641;-68
2023/09/03 01:59:43;;;;;;;1.27;1.17;;;21.50;64.10;;;;;;6195444;28;20023;-69
2023/09/03 02:02:46;;;;;;;1.63;1.13;;;21.50;64.10;;;;;;6195426;28;20130;-68
2023/09/03 02:05:46;;;;;;;1.77;1.10;;;21.50;64.10;;;;;;6195788;28;20037;-68
2023/09/03 02:08:47;;;;;;;1.13;1.00;;;21.50;64.10;;;;;;6195108;28;20485;-68
2023/09/03 02:11:48;;;;;;;1.10;1.00;;;21.50;64.10;;;;;;6195220;28;20052;-68
2023/09/03 02:14:52;;;;;;;1.25;1.10;;;21.50;64.10;;;;;;6195439;28;20038;-68
2023/09/03 02:17:55;;;;;;;1.85;1.27;;;21.50;64.10;;;;;;6195511;28;20477;-69
2023/09/03 02:20:56;;;;;;;2.13;1.15;;;21.50;64.10;;;;;;6195479;28;20026;-68
2023/09/03 02:23:58;;;;;;;1.58;1.13;;;21.50;64.10;;;;;;6194988;28;20019;-68
2023/09/03 02:27:00;;;;;;;1.25;0.95;;;21.50;64.10;;;;;;6195249;28;20022;-69
2023/09/03 02:30:00;;;;;;;1.35;1.10;;;21.50;64.10;;;;;;6194953;28;20018;-68
2023/09/03 02:33:01;;;;;;;1.48;1.10;;;21.50;64.10;;;;;;6195409;28;20093;-68
2023/09/03 02:36:02;;;;;;;1.50;1.00;;;21.50;64.10;;;;;;6194836;28;20413;-69
2023/09/03 02:39:04;;;;;;;1.80;1.27;;;21.50;64.10;;;;;;6194872;28;20031;-68
2023/09/03 02:42:05;;;;;;;0.80;0.80;;;21.50;64.10;;;;;;6194912;28;20015;-68
2023/09/03 02:45:06;;;;;;;1.30;1.00;;;21.50;64.10;;;;;;6194987;28;20026;-68
2023/09/03 02:48:08;;;;;;;1.00;0.90;;;21.50;64.10;;;;;;6194728;28;20026;-68
2023/09/03 02:51:08;;;;;;;1.15;0.95;;;21.50;64.20;;;;;;6194821;28;20413;-69
2023/09/03 02:54:09;;;;;;;1.35;1.10;;;21.50;64.10;;;;;;6194805;28;20046;-69
2023/09/03 02:57:10;;;;;;;1.20;0.90;;;21.50;64.10;;;;;;6194679;28;20022;-69
2023/09/03 03:00:11;;;;;;;1.05;0.95;;;21.50;64.10;;;;;;6194533;28;20034;-68
2023/09/03 03:03:11;;;;;;;1.38;0.90;;;21.50;64.10;;;;;;6194812;28;20022;-68
2023/09/03 03:06:13;;;;;;;1.30;1.10;;;21.50;64.20;;;;;;6194769;28;20038;-68
2023/09/03 03:09:13;;;;;;;1.27;1.00;;;21.50;64.20;;;;;;6198473;28;20126;-68
2023/09/03 03:12:14;;;;;;;1.30;0.93;;;21.50;64.10;;;;;;6199637;28;20515;-69
2023/09/03 03:15:15;;;;;;;1.23;1.05;;;21.50;64.20;;;;;;6199755;28;20027;-69
2023/09/03 03:18:15;;;;;;;1.20;1.10;;;21.50;64.20;;;;;;6199239;28;20047;-68
2023/09/03 03:21:19;;;;;;;1.23;1.10;;;21.50;64.20;;;;;;6199389;28;20042;-69
2023/09/03 03:24:20;;;;;;;1.60;1.30;;;21.50;64.20;;;;;;6199500;28;20026;-68
2023/09/03 03:27:22;;;;;;;1.70;1.30;;;21.50;64.20;;;;;;6199339;28;20026;-69
2023/09/03 03:30:23;;;;;;;1.23;0.95;;;21.50;64.20;;;;;;6199405;28;20376;-68
2023/09/03 03:33:24;;;;;;;1.38;0.90;;;21.50;64.20;;;;;;6198988;28;20034;-68
2023/09/03 03:36:25;;;;;;;1.15;1.05;;;21.50;65.00;;;;;;6199285;28;20083;-68
2023/09/03 03:39:25;;;;;;;1.10;1.00;;;21.50;64.20;;;;;;6199010;28;20026;-68
2023/09/03 03:42:26;;;;;;;1.75;1.25;;;21.50;64.20;;;;;;6199490;28;20524;-68
2023/09/03 03:45:27;;;;;;;1.30;1.20;;;21.50;64.20;;;;;;6198684;28;20022;-69
2023/09/03 03:48:27;;;;;;;1.50;1.30;;;21.50;64.20;;;;;;6198654;28;20077;-68
2023/09/03 03:51:28;;;;;;;1.52;1.10;;;21.50;64.20;;;;;;6198556;28;20079;-68
2023/09/03 03:54:30;;;;;;;0.70;0.70;;;21.50;64.20;;;;;;6198476;28;20053;-68
2023/09/03 03:57:31;;;;;;;1.17;0.98;;;21.50;64.20;;;;;;6198346;28;20027;-69
2023/09/03 04:00:43;;;;;;;1.35;1.08;;;21.50;64.20;;;;;;6198420;28;20378;-68
2023/09/03 04:03:45;;;;;;;1.30;1.05;;;21.50;64.30;;;;;;6198423;28;20535;-68
2023/09/03 04:06:46;;;;;;;1.33;1.00;;;21.50;64.20;;;;;;6198051;28;20092;-68
2023/09/03 04:09:47;;;;;;;1.27;1.10;;;21.50;64.20;;;;;;6197363;28;20022;-67
2023/09/03 04:12:47;;;;;;;1.17;0.93;;;21.50;64.20;;;;;;6197394;28;20140;-68
2023/09/03 04:15:48;;;;;;;1.15;1.05;;;21.50;64.20;;;;;;6197235;28;20549;-68
2023/09/03 04:18:49;;;;;;;1.35;1.10;;;21.50;64.20;;;;;;6197510;28;20022;-68
2023/09/03 04:21:49;;;;;;;1.30;1.00;;;21.50;64.20;;;;;;6197689;28;20101;-68
2023/09/03 04:24:50;;;;;;;1.42;1.08;;;21.50;64.20;;;;;;6197994;28;20026;-68
2023/09/03 04:27:50;;;;;;;1.27;0.95;;;21.50;64.20;;;;;;6198155;28;20105;-69
2023/09/03 04:30:56;;;;;;;1.58;0.95;;;21.50;64.20;;;;;;6197914;28;20034;-69
2023/09/03 04:33:57;;;;;;;1.20;1.00;;;21.50;64.20;;;;;;6197712;28;20041;-68
2023/09/03 04:36:57;;;;;;;1.10;1.00;;;21.50;64.20;;;;;;6197957;28;20390;-69
2023/09/03 04:39:58;;;;;;;1.13;1.00;;;21.50;64.30;;;;;;6197386;28;20026;-68
2023/09/03 04:42:58;;;;;;;1.10;1.00;;;21.50;64.20;;;;;;6197906;28;20470;-69
2023/09/03 04:45:59;;;;;;;1.30;1.08;;;21.50;64.20;;;;;;6197383;28;20030;-68
2023/09/03 04:49:00;;;;;;;1.55;1.00;;;21.50;64.20;;;;;;6197447;28;20646;-68
2023/09/03 04:52:01;;;;;;;1.38;1.00;;;21.50;64.20;;;;;;6197355;28;20085;-68
2023/09/03 04:55:01;;;;;;;1.15;1.00;;;21.50;64.20;;;;;;6197157;28;20034;-68
2023/09/03 04:58:02;;;;;;;1.45;0.90;;;21.50;64.20;;;;;;6196358;28;20546;-68
2023/09/03 05:01:14;;;;;;;1.30;1.20;;;21.50;64.30;;;;;;6193621;28;20069;-68
2023/09/03 05:04:15;;;;;;;1.08;0.90;;;21.50;64.20;;;;;;6173175;28;20046;-69
2023/09/03 05:07:16;;;;;;;1.25;1.00;;;21.50;64.30;;;;;;6196125;28;20429;-68
2023/09/03 05:10:16;;;;;;;1.00;0.90;;;21.50;64.30;;;;;;6196847;28;20033;-68
2023/09/03 05:13:17;;;;;;;1.20;0.90;;;21.50;64.30;;;;;;6196958;28;20048;-68
2023/09/03 05:16:18;;;;;;;1.00;0.90;;;21.50;64.20;;;;;;6196611;28;20430;-68
2023/09/03 05:19:18;;;;;;;1.25;1.00;;;21.50;64.30;;;;;;6195618;28;20026;-68
2023/09/03 05:22:19;;;;;;;1.00;0.90;;;21.50;64.30;;;;;;6196854;28;20115;-68
2023/09/03 05:25:19;;;;;;;1.45;0.90;;;21.50;64.20;;;;;;6196650;28;20034;-69
2023/09/03 05:28:20;;;;;;;1.10;0.80;;;21.50;64.30;;;;;;6196592;28;20101;-68
2023/09/03 05:31:20;;;;;;;1.10;0.90;;;21.50;64.20;;;;;;6195459;28;20031;-69
2023/09/03 05:34:22;;;;;;;1.20;1.02;;;21.50;64.30;;;;;;6196593;28;20129;-68
2023/09/03 05:37:22;;;;;;;1.38;1.02;;;21.50;64.30;;;;;;6196259;28;20684;-68
2023/09/03 05:40:23;;;;;;;1.05;0.95;;;21.50;64.30;;;;;;6196518;28;20039;-68
2023/09/03 05:43:24;;;;;;;1.08;0.80;;;21.50;64.20;;;;;;6196100;28;20037;-69
2023/09/03 05:46:24;;;;;;;1.02;0.90;;;21.50;64.30;;;;;;6195981;28;20401;-68
2023/09/03 05:49:25;;;;;;;1.10;0.90;;;21.50;64.30;;;;;;6196125;28;20022;-68
2023/09/03 05:52:26;;;;;;;1.23;0.88;;;21.50;64.30;;;;;;6195815;28;20030;-68
2023/09/03 05:55:26;;;;;;;1.60;1.10;;;21.50;64.30;;;;;;6195971;28;20026;-68
2023/09/03 05:58:27;;;;;;;0.85;0.82;;;21.50;64.30;;;;;;6195946;28;20437;-68
2023/09/03 06:01:27;;;;;;;1.10;0.90;;;21.50;64.30;;;;;;6195439;28;20100;-67
2023/09/03 06:04:28;;;;;;;1.45;1.10;;;21.50;64.30;;;;;;6195959;28;20022;-68
2023/09/03 06:07:29;;;;;;;0.95;0.70;;;21.50;64.30;;;;;;6195550;28;20366;-68
2023/09/03 06:10:30;;;;;;;0.95;0.65;;;21.50;64.30;;;;;;6195838;28;20113;-68
2023/09/03 06:13:32;;;;;;;1.00;0.90;;;21.50;64.30;;;;;;6195309;28;20046;-68
2023/09/03 06:16:33;;;;;;;1.30;1.00;;;21.50;64.30;;;;;;6195749;28;20022;-68
2023/09/03 06:19:33;;;;;;;1.30;0.90;;;21.50;64.30;;;;;;6195678;28;20034;-68
2023/09/03 06:22:34;;;;;;;1.02;0.93;;;21.50;64.30;;;;;;6195357;28;20027;-68
2023/09/03 06:25:35;;;;;;;1.15;1.00;;;21.50;64.30;;;;;;6195538;28;20473;-68
2023/09/03 06:28:36;;;;;;;0.90;0.80;;;21.50;64.30;;;;;;6195286;28;20027;-68
2023/09/03 06:31:37;;;;;;;1.10;1.00;;;21.50;64.30;;;;;;6195431;28;20045;-69
2023/09/03 06:34:38;;;;;;;1.05;0.85;;;21.50;64.30;;;;;;6194984;28;20034;-68
2023/09/03 06:37:39;;;;;;;1.10;0.80;;;21.50;64.30;;;;;;6195163;28;20650;-68
2023/09/03 06:40:39;;;;;;;0.75;0.68;;;21.50;64.30;;;;;;6195048;28;20489;-68
2023/09/03 06:43:40;;;;;;;1.42;0.98;;;21.50;64.30;;;;;;6194761;28;20028;-68
2023/09/03 06:46:41;;;;;;;1.38;0.98;;;21.50;64.30;;;;;;6195205;28;20022;-68
2023/09/03 06:49:41;;;;;;;1.42;0.98;;;21.50;64.30;;;;;;6194927;28;20027;-68
2023/09/03 06:52:42;;;;;;;1.08;0.95;;;21.50;64.30;;;;;;6194717;28;20030;-68
2023/09/03 06:55:44;;;;;;;1.00;0.80;;;21.50;64.30;;;;;;6194998;28;20054;-68
2023/09/03 06:58:45;;;;;;;1.20;0.90;;;21.50;64.30;;;;;;6194873;28;20038;-69
2023/09/03 07:01:45;;;;;;;0.70;0.70;;;21.50;64.30;;;;;;6195119;28;20049;-68
2023/09/03 07:04:46;;;;;;;1.58;0.93;;;21.50;64.30;;;;;;6194588;28;20030;-68
2023/09/03 07:07:47;;;;;;;0.90;0.90;;;21.50;64.30;;;;;;6195163;28;20069;-69
2023/09/03 07:10:47;;;;;;;1.20;0.90;;;21.50;64.40;;;;;;6194466;28;20030;-68
2023/09/03 07:13:49;;;;;;;1.20;0.85;;;21.50;64.30;;;;;;6194725;28;20050;-68
2023/09/03 07:16:50;;;;;;;0.90;0.70;;;21.50;64.30;;;;;;6194653;28;20054;-68
2023/09/03 07:19:54;;;;;;;0.88;0.80;;;21.50;64.30;;;;;;6194624;28;20024;-68
2023/09/03 07:22:55;;;;;;;1.13;0.73;;;21.50;64.30;;;;;;6194718;28;20026;-69
2023/09/03 07:26:04;;;;;;;0.93;0.80;;;21.50;64.30;;;;;;6194600;28;20050;-68
2023/09/03 07:29:04;;;;;;;1.13;0.85;;;21.50;64.30;;;;;;6194839;28;20037;-68
2023/09/03 07:32:05;;;;;;;0.93;0.70;;;21.50;64.30;;;;;;6194683;28;20031;-69
2023/09/03 07:35:07;;;;;;;0.95;0.85;;;21.50;64.30;;;;;;6194110;28;20030;-68
2023/09/03 07:38:07;;;;;;;1.10;0.75;;;21.50;64.30;;;;;;6195097;28;20113;-68
2023/09/03 07:41:08;;;;;;;1.27;0.80;;;21.50;64.30;;;;;;6194060;28;20033;-68
2023/09/03 07:44:09;;;;;;;0.88;0.75;;;21.50;64.30;;;;;;6194746;28;20425;-69
2023/09/03 07:47:09;;;;;;;0.82;0.70;;;21.50;64.30;;;;;;6194223;28;20141;-68
2023/09/03 07:50:10;;;;;;;1.25;1.00;;;21.50;64.30;;;;;;6194399;28;20646;-67
2023/09/03 07:53:11;;;;;;;1.00;0.90;;;21.50;64.30;;;;;;6194191;28;20073;-69
2023/09/03 07:56:12;;;;;;;0.98;0.88;;;21.50;64.30;;;;;;6197591;28;20022;-68
2023/09/03 07:59:12;;;;;;;1.10;0.70;;;21.50;64.30;;;;;;6198693;28;20673;-68
2023/09/03 08:02:13;;;;;;;0.85;0.77;;;21.50;64.40;;;;;;6198521;28;20045;-68
2023/09/03 08:05:13;;;;;;;0.98;0.88;;;21.50;64.30;;;;;;6197415;28;20482;-68
2023/09/03 08:08:14;;;;;;;1.45;1.00;;;21.50;64.40;;;;;;6198262;28;20073;-68
2023/09/03 08:11:15;;;;;;;1.10;0.90;;;21.50;64.30;;;;;;6197733;28;20434;-68
2023/09/03 08:14:15;;;;;;;0.70;0.70;;;21.50;64.30;;;;;;6198325;28;20074;-68
2023/09/03 08:17:16;;;;;;;0.93;0.80;;;21.50;64.30;;;;;;6198041;28;20022;-69
2023/09/03 08:20:17;;;;;;;0.90;0.80;;;21.50;64.30;;;;;;6198316;28;20037;-68
2023/09/03 08:23:18;;;;;;;1.10;0.90;;;21.50;64.30;;;;;;6197831;28;20044;-68
2023/09/03 08:26:19;;;;;;;1.23;1.00;;;21.50;64.30;;;;;;6198094;28;20517;-68
2023/09/03 08:29:19;;;;;;;1.33;0.70;;;21.50;64.30;;;;;;6197964;28;20027;-68
2023/09/03 08:32:20;;;;;;;1.05;0.93;;;21.50;64.30;;;;;;6197450;28;20666;-68
2023/09/03 08:35:20;;;;;;;1.55;1.00;;;21.50;64.30;;;;;;6198239;28;20058;-68
2023/09/03 08:38:21;;;;;;;0.80;0.80;;;21.50;64.30;;;;;;6197646;28;20096;-69
2023/09/03 08:41:25;;;;;;;0.93;0.80;;;21.50;64.30;;;;;;6197563;28;20026;-68
2023/09/03 08:44:28;;;;;;;1.27;0.90;;;21.50;64.30;;;;;;6197441;28;20027;-68
2023/09/03 08:47:29;;;;;;;0.75;0.70;;;21.50;64.30;;;;;;6197436;28;20018;-68
2023/09/03 08:50:31;;;;;;;0.90;0.80;;;21.50;64.30;;;;;;6197434;28;20052;-69
2023/09/03 08:53:34;;;;;;;1.33;0.85;;;21.50;64.30;;;;;;6197252;28;20034;-68
2023/09/03 08:56:35;;;;;;;1.75;0.70;;;21.50;64.30;;;;;;6197373;28;20068;-69
2023/09/03 08:59:35;;;;;;;1.08;0.90;;;21.50;64.30;;;;;;6197528;28;20484;-68
2023/09/03 09:02:37;;;;;;;1.02;0.80;;;21.50;64.30;;;;;;6196834;28;20034;-68
2023/09/03 09:05:41;;;;;;;0.80;0.80;;;21.50;64.30;;;;;;6197190;28;20500;-69
2023/09/03 09:08:42;;;;;;;0.70;0.70;;;21.50;64.30;;;;;;6195574;28;20041;-68
2023/09/03 09:11:55;;;;;;;1.05;0.80;;;21.50;64.30;;;;;;6196974;28;20034;-68
2023/09/03 09:15:01;;;;;;;1.15;0.95;;;21.50;64.30;;;;;;6197107;28;20046;-69
2023/09/03 09:18:08;;;;;;;0.90;0.70;;;21.50;64.30;;;;;;6196725;28;20057;-69
2023/09/03 09:21:08;;;;;;;0.95;0.63;;;21.50;64.30;;;;;;6196966;28;20110;-69
2023/09/03 09:24:11;;;;;;;0.65;0.65;;;21.50;64.30;;;;;;6196968;28;20377;-68
2023/09/03 09:27:19;;;;;;;1.02;0.80;;;21.50;64.30;;;;;;6196963;28;20030;-68
2023/09/03 09:30:27;;;;;;;0.95;0.73;;;21.50;64.30;;;;;;6196444;28;20022;-68
2023/09/03 09:33:27;;;;;;;1.25;0.80;;;21.50;64.30;;;;;;6196127;28;20057;-68
2023/09/03 09:36:30;;;;;;;0.95;0.77;;;21.50;64.30;;;;;;6196463;28;20030;-69
2023/09/03 09:39:42;;;;;;;3.50;0.90;;;21.50;64.30;;;;;;6196051;28;20049;-69
2023/09/03 09:43:12;;;;;;;0.60;0.60;;;21.50;64.30;;;;;;6195742;28;20389;-68
2023/09/03 09:46:25;;;;;;;0.70;0.70;;;21.50;64.30;;;;;;6190697;28;20030;-69
2023/09/03 09:49:41;;;;;;;2.15;0.80;;;21.50;64.30;;;;;;6195017;28;20029;-69
2023/09/03 09:52:41;;;;;;;1.70;1.05;;;21.50;64.30;;;;;;6194956;28;20491;-68
2023/09/03 09:55:42;;;;;;;1.42;0.95;;;21.50;64.30;;;;;;6194775;28;20030;-68
2023/09/03 09:58:42;;;;;;;0.63;0.60;;;21.50;64.30;;;;;;6195373;28;20080;-68
2023/09/03 10:01:46;;;;;;;0.75;0.70;;;21.50;64.30;;;;;;6195274;28;20030;-68
2023/09/03 10:04:49;;;;;;;0.82;0.75;;;21.50;64.30;;;;;;6195344;28;20031;-68
2023/09/03 10:07:50;;;;;;;1.00;0.68;;;21.50;64.30;;;;;;6195757;28;20022;-68
2023/09/03 10:10:51;;;;;;;0.68;0.60;;;21.50;64.30;;;;;;6195151;28;20377;-68
2023/09/03 10:13:51;;;;;;;0.93;0.70;;;21.50;64.30;;;;;;6195475;28;20046;-68
2023/09/03 10:16:55;;;;;;;0.70;0.70;;;21.50;64.30;;;;;;6195019;28;20065;-69
2023/09/03 10:20:04;;;;;;;1.77;0.77;;;21.50;64.30;;;;;;6195564;28;20030;-68
2023/09/03 10:23:05;;;;;;;1.23;0.70;;;21.50;64.30;;;;;;6195250;28;20061;-68
2023/09/03 10:26:06;;;;;;;0.73;0.73;;;21.50;64.30;;;;;;6195317;28;20026;-68
2023/09/03 10:29:11;;;;;;;0.70;0.65;;;21.50;64.40;;;;;;6195857;28;20030;-69
2023/09/03 10:32:14;;;;;;;0.77;0.68;;;21.50;64.30;;;;;;6195397;28;20076;-68
2023/09/03 10:35:15;;;;;;;0.55;0.55;;;21.50;64.30;;;;;;6210408;28;20450;-68
2023/09/03 10:38:42;;;;;;;0.77;0.60;;;21.50;65.20;;;;;;6195035;28;20024;-68
2023/09/03 10:41:43;;;;;;;0.85;0.70;;;21.50;64.30;;;;;;6193726;28;20030;-68
2023/09/03 10:44:49;;;;;;;0.80;0.80;;;21.50;64.30;;;;;;6194994;28;20927;-68
2023/09/03 10:48:03;;;;;;;0.98;0.80;;;21.50;64.30;;;;;;6194834;28;20101;-68
2023/09/03 10:51:04;;;;;;;0.75;0.70;;;21.50;64.30;;;;;;6195020;28;20026;-69
2023/09/03 10:54:15;;;;;;;0.75;0.65;;;21.50;64.30;;;;;;6194966;28;20030;-68
2023/09/03 10:57:16;;;;;;;0.70;0.60;;;21.50;64.40;;;;;;6194901;28;20527;-68
2023/09/03 11:00:20;;;;;;;0.70;0.68;;;21.50;64.30;;;;;;6195125;28;20057;-68
2023/09/03 11:03:23;;;;;;;0.98;0.65;;;21.50;64.30;;;;;;6194784;28;20508;-69
2023/09/03 11:06:30;;;;;;;0.70;0.70;;;21.50;64.40;;;;;;6194524;28;20031;-68
2023/09/03 11:09:30;;;;;;;0.68;0.68;;;21.50;64.40;;;;;;6195039;28;20030;-69
2023/09/03 11:12:34;;;;;;;1.00;0.60;;;21.50;64.30;;;;;;6194028;28;20050;-68
2023/09/03 11:15:35;;;;;;;0.80;0.73;;;21.50;64.40;;;;;;6195011;28;20034;-68
2023/09/03 11:18:36;;;;;;;1.17;0.80;;;21.50;64.30;;;;;;6194463;28;20085;-68
2023/09/03 11:21:38;;;;;;;0.60;0.60;;;21.50;64.40;;;;;;6194636;28;20042;-68
2023/09/03 11:24:46;;;;;;;0.70;0.70;;;21.50;64.30;;;;;;6194798;28;20092;-69
2023/09/03 11:27:49;;;;;;;0.70;0.60;;;21.50;64.30;;;;;;6194260;28;20034;-68
2023/09/03 11:30:59;;;;;;;0.60;0.60;;;21.50;64.30;;;;;;6199393;28;20025;-69
2023/09/03 11:34:00;;;;;;;0.60;0.55;;;21.50;64.30;;;;;;6198891;28;20109;-68
2023/09/03 11:37:02;;;;;;;1.40;0.90;;;21.50;64.40;;;;;;6198967;28;20501;-68
2023/09/03 11:40:04;;;;;;;0.70;0.60;;;21.50;64.40;;;;;;6199326;28;20023;-68
2023/09/03 11:43:09;;;;;;;0.57;0.47;;;21.50;64.30;;;;;;6198694;28;20046;-69
2023/09/03 11:46:12;;;;;;;0.60;0.60;;;21.50;64.30;;;;;;6199113;28;20023;-69
2023/09/03 11:49:21;;;;;;;0.88;0.65;;;21.50;64.40;;;;;;6199055;28;20060;-68
2023/09/03 11:52:21;;;;;;;0.73;0.65;;;21.50;64.40;;;;;;6198737;28;20077;-69
2023/09/03 11:55:45;;;;;;;0.98;0.77;;;21.50;64.40;;;;;;6198516;28;20031;-68
2023/09/03 11:58:56;;;;;;;0.50;0.50;;;21.50;64.40;;;;;;6198077;28;20469;-68
2023/09/03 12:01:58;;;;;;;0.70;0.70;;;21.50;64.40;;;;;;6198890;28;20023;-68
2023/09/03 12:04:58;;;;;;;0.82;0.73;;;21.50;64.30;;;;;;6198132;28;20677;-68
2023/09/03 12:08:01;;;;;;;0.70;0.70;;;21.50;64.30;;;;;;6198218;28;20066;-68
2023/09/03 12:11:02;;;;;;;0.82;0.60;;;21.50;64.30;;;;;;6197566;28;20048;-68
2023/09/03 12:14:03;;;;;;;1.27;0.68;;;21.50;64.40;;;;;;6196600;28;20050;-68
2023/09/03 12:17:03;;;;;;;0.47;0.40;;;21.50;64.30;;;;;;6196701;28;20153;-68
2023/09/03 12:20:05;;;;;;;0.50;0.50;;;21.50;64.30;;;;;;6196618;28;20122;-68
2023/09/03 12:23:11;;;;;;;0.68;0.60;;;21.50;64.40;;;;;;6196597;28;20034;-68
2023/09/03 12:26:16;;;;;;;1.33;0.70;;;21.50;64.40;;;;;;6196553;28;20505;-68
2023/09/03 12:29:21;;;;;;;0.40;0.40;;;21.50;64.30;;;;;;6196187;28;20025;-69
2023/09/03 12:32:33;;;;;;;0.45;0.45;;;21.50;64.30;;;;;;6196860;28;20029;-68
2023/09/03 12:35:34;;;;;;;0.70;0.57;;;21.50;64.30;;;;;;6195936;28;20062;-69
2023/09/03 12:38:55;;;;;;;0.80;0.70;;;21.50;64.30;;;;;;6196015;28;20358;-68
2023/09/03 12:41:57;;;;;;;0.50;0.50;;;21.50;64.40;;;;;;6196169;28;20105;-69
2023/09/03 12:44:58;;;;;;;0.73;0.55;;;21.50;64.40;;;;;;6196752;28;20030;-68
2023/09/03 12:47:58;;;;;;;0.75;0.70;;;21.50;64.40;;;;;;6195787;28;20023;-68
2023/09/03 12:50:59;;;;;;;0.47;0.47;;;21.50;64.40;;;;;;6195823;28;20026;-68
2023/09/03 12:53:59;;;;;;;0.65;0.50;;;21.50;64.40;;;;;;6195953;28;20073;-68
2023/09/03 12:57:00;;;;;;;0.40;0.40;;;21.50;64.40;;;;;;6196241;28;20519;-69
2023/09/03 13:00:04;;;;;;;0.60;0.60;;;21.50;64.50;;;;;;6195321;28;20022;-67
2023/09/03 13:03:05;;;;;;;0.35;0.35;;;21.50;64.40;;;;;;6194715;28;20130;-68
2023/09/03 13:06:06;;;;;;;1.40;0.63;;;21.50;64.40;;;;;;6195813;28;20033;-68
2023/09/03 13:09:08;;;;;;;0.55;0.52;;;21.50;64.40;;;;;;6196123;28;20028;-69
2023/09/03 13:12:09;;;;;;;0.50;0.50;;;21.50;64.40;;;;;;6194956;28;20054;-67
2023/09/03 13:15:10;;;;;;;0.63;0.50;;;21.50;64.50;;;;;;6195334;28;20147;-68
2023/09/03 13:18:10;;;;;;;0.75;0.50;;;21.50;64.40;;;;;;6195665;28;20038;-68
2023/09/03 13:21:12;;;;;;;0.50;0.50;;;21.50;64.40;;;;;;6194933;28;20513;-68
2023/09/03 13:24:13;;;;;;;0.45;0.40;;;21.50;64.40;;;;;;6195202;28;20101;-68
2023/09/03 13:27:13;;;;;;;0.50;0.50;;;21.50;64.40;;;;;;6195384;28;20029;-68
2023/09/03 13:30:14;;;;;;;0.47;0.47;;;21.50;64.40;;;;;;6195252;28;20030;-69
2023/09/03 13:33:14;;;;;;;0.50;0.50;;;21.50;64.40;;;;;;6195490;28;20556;-68
2023/09/03 13:36:17;;;;;;;0.50;0.50;;;21.50;64.40;;;;;;6195317;28;20033;-69
2023/09/03 13:39:17;;;;;;;0.88;0.75;;;21.50;64.40;;;;;;6195745;28;20022;-68
2023/09/03 13:42:18;;;;;;;0.50;0.50;;;21.50;64.50;;;;;;6194629;28;20080;-68
2023/09/03 13:45:18;;;;;;;0.73;0.70;;;21.50;64.40;;;;;;6194540;28;20023;-69
2023/09/03 13:48:19;;;;;;;0.60;0.57;;;21.50;64.30;;;;;;6194517;28;20088;-68
2023/09/03 13:51:20;;;;;;;0.80;0.73;;;21.50;64.40;;;;;;6194338;28;20035;-68
2023/09/03 13:54:21;;;;;;;0.50;0.50;;;21.50;64.40;;;;;;6193758;28;20096;-68
2023/09/03 13:57:21;;;;;;;0.50;0.40;;;21.50;64.40;;;;;;6194754;28;20667;-68
2023/09/03 14:00:22;;;;;;;0.50;0.45;;;21.50;64.40;;;;;;6194304;28;20030;-68
2023/09/03 14:03:23;;;;;;;0.52;0.50;;;21.50;64.40;;;;;;6194527;28;20393;-68
2023/09/03 14:06:23;;;;;;;0.40;0.40;;;21.50;64.50;;;;;;6183593;28;20596;-68
2023/09/03 14:09:24;;;;;;;0.57;0.50;;;21.50;64.40;;;;;;6186847;28;20105;-68
2023/09/03 14:12:24;;;;;;;0.40;0.40;;;21.50;64.50;;;;;;6188659;28;20370;-69
2023/09/03 14:15:25;;;;;;;0.70;0.47;;;21.50;64.30;;;;;;6191368;28;20031;-67
2023/09/03 14:18:27;;;;;;;0.50;0.50;;;21.50;64.50;;;;;;6199822;28;20022;-69
2023/09/03 14:21:28;;;;;;;0.52;0.52;;;21.50;64.40;;;;;;6207677;28;20029;-68
2023/09/03 14:24:28;;;;;;;0.43;0.40;;;21.50;64.40;;;;;;6190569;28;20034;-68
2023/09/03 14:27:29;;;;;;;0.52;0.40;;;21.50;64.40;;;;;;6191423;28;20072;-68
2023/09/03 14:30:30;;;;;;;0.55;0.50;;;21.50;64.50;;;;;;6191821;28;20515;-69
2023/09/03 14:33:30;;;;;;;0.50;0.50;;;21.50;64.50;;;;;;6190916;28;20490;-69
2023/09/03 14:36:31;;;;;;;0.63;0.50;;;21.50;64.40;;;;;;6191428;28;20026;-68
2023/09/03 14:39:32;;;;;;;0.70;0.60;;;21.50;64.40;;;;;;6191838;28;20497;-68
2023/09/03 14:42:32;;;;;;;0.90;0.70;;;21.50;64.40;;;;;;6190827;28;20027;-68
2023/09/03 14:45:33;;;;;;;0.73;0.50;;;21.50;64.40;;;;;;6191253;28;20097;-68
2023/09/03 14:48:33;;;;;;;0.52;0.50;;;21.50;64.40;;;;;;6191056;28;20106;-68
2023/09/03 14:51:34;;;;;;;0.77;0.50;;;21.50;64.40;;;;;;6190698;28;20038;-68
2023/09/03 14:54:35;;;;;;;0.50;0.50;;;21.50;64.40;;;;;;6190504;28;20129;-68
2023/09/03 14:57:36;;;;;;;0.45;0.45;;;21.50;64.50;;;;;;6191017;28;20034;-69
2023/09/03 15:00:36;;;;;;;0.73;0.52;;;21.50;64.50;;;;;;6190576;28;20580;-69
2023/09/03 15:03:37;;;;;;;0.50;0.50;;;21.50;64.40;;;;;;6191568;28;20030;-67
2023/09/03 15:06:38;;;;;;;0.63;0.63;;;21.50;64.50;;;;;;6201175;28;20030;-68
2023/09/03 15:09:38;;;;;;;0.90;0.60;;;21.50;64.50;;;;;;6203973;28;20058;-68
2023/09/03 15:12:39;;;;;;;1.73;0.77;;;21.50;64.50;;;;;;6195052;28;20125;-68
2023/09/03 15:15:40;;;;;;;0.70;0.60;;;21.50;64.40;;;;;;6202023;28;20504;-68
2023/09/03 15:18:40;;;;;;;1.50;0.70;;;21.50;64.50;;;;;;6195446;28;20027;-68
2023/09/03 15:21:43;;;;;;;3.03;0.70;;;21.50;64.50;;;;;;6195542;28;20484;-68
2023/09/03 15:24:43;;;;;;;1.55;0.75;;;21.50;64.50;;;;;;6193915;28;20042;-68
2023/09/03 15:27:44;;;;;;;1.50;0.93;;;21.50;64.50;;;;;;6195856;28;20040;-68
2023/09/03 15:30:44;;;;;;;0.80;0.70;;;21.50;64.50;;;;;;6195650;28;20125;-69
2023/09/03 15:33:45;;;;;;;1.77;0.95;;;21.50;64.50;;;;;;6198261;28;20041;-68
2023/09/03 15:36:47;;;;;;;1.95;0.85;;;21.50;64.50;;;;;;6199774;28;20030;-68
2023/09/03 15:39:47;;;;;;;2.08;0.85;;;21.50;64.40;;;;;;6194823;28;20026;-68
2023/09/03 15:42:48;;;;;;;2.22;0.90;;;21.50;64.50;;;;;;6195269;28;20508;-68
2023/09/03 15:45:52;;;;;;;1.38;0.80;;;21.50;64.50;;;;;;6194190;28;20022;-68
2023/09/03 15:48:53;;;;;;;1.65;0.88;;;21.50;64.50;;;;;;6195988;28;20081;-68
2023/09/03 15:51:53;;;;;;;1.65;1.05;;;21.50;64.50;;;;;;6184364;28;20034;-68